sensor_id;sensor_type;location;lat;lon;timestamp;P1;durP1;ratioP1;P2;durP2;ratioP2
78752;SDS011;68072;51.688;7.842;2024-02-21T00:01:21;19.17;;;5.27;;
78752;SDS011;68072;51.688;7.842;2024-02-21T00:03:47;16.13;;;5.03;;
78752;SDS011;68072;51.688;7.842;2024-02-21T00:06:12;15.80;;;5.87;;
78752;SDS011;68072;51.688;7.842;2024-02-21T00:08:37;14.03;;;6.13;;
78752;SDS011;68072;51.688;7.842;2024-02-21T00:11:02;10.20;;;4.63;;
78752;SDS011;68072;51.688;7.842;2024-02-21T00:13:28;16.53;;;5.40;;
78752;SDS011;68072;51.688;7.842;2024-02-21T00:15:53;10.87;;;5.10;;
78752;SDS011;68072;51.688;7.842;2024-02-21T00:18:18;15.35;;;5.50;;
78752;SDS011;68072;51.688;7.842;2024-02-21T00:20:44;10.27;;;4.03;;
78752;SDS011;68072;51.688;7.842;2024-02-21T00:23:09;11.50;;;4.80;;
78752;SDS011;68072;51.688;7.842;2024-02-21T00:25:34;19.30;;;5.43;;
78752;SDS011;68072;51.688;7.842;2024-02-21T00:28:00;18.17;;;5.07;;
78752;SDS011;68072;51.688;7.842;2024-02-21T00:30:31;18.17;;;5.30;;
78752;SDS011;68072;51.688;7.842;2024-02-21T00:33:09;12.15;;;5.35;;
78752;SDS011;68072;51.688;7.842;2024-02-21T00:35:45;17.60;;;5.20;;
78752;SDS011;68072;51.688;7.842;2024-02-21T00:38:23;11.70;;;4.95;;
78752;SDS011;68072;51.688;7.842;2024-02-21T00:40:51;10.07;;;4.22;;
78752;SDS011;68072;51.688;7.842;2024-02-21T00:43:38;12.27;;;4.85;;
78752;SDS011;68072;51.688;7.842;2024-02-21T00:46:05;10.73;;;5.45;;
78752;SDS011;68072;51.688;7.842;2024-02-21T00:48:30;11.70;;;5.07;;
78752;SDS011;68072;51.688;7.842;2024-02-21T00:50:55;15.27;;;5.60;;
78752;SDS011;68072;51.688;7.842;2024-02-21T00:53:21;8.00;;;4.20;;
78752;SDS011;68072;51.688;7.842;2024-02-21T00:55:46;12.80;;;5.60;;
78752;SDS011;68072;51.688;7.842;2024-02-21T00:58:11;15.17;;;4.73;;
78752;SDS011;68072;51.688;7.842;2024-02-21T01:00:36;16.20;;;4.63;;
78752;SDS011;68072;51.688;7.842;2024-02-21T01:03:01;17.37;;;5.50;;
78752;SDS011;68072;51.688;7.842;2024-02-21T01:05:27;12.70;;;5.20;;
78752;SDS011;68072;51.688;7.842;2024-02-21T01:07:54;11.45;;;5.40;;
78752;SDS011;68072;51.688;7.842;2024-02-21T01:10:19;7.20;;;4.00;;
78752;SDS011;68072;51.688;7.842;2024-02-21T01:12:44;15.53;;;5.13;;
78752;SDS011;68072;51.688;7.842;2024-02-21T01:15:09;10.97;;;5.60;;
78752;SDS011;68072;51.688;7.842;2024-02-21T01:17:35;23.23;;;5.85;;
78752;SDS011;68072;51.688;7.842;2024-02-21T01:20:00;12.70;;;5.60;;
78752;SDS011;68072;51.688;7.842;2024-02-21T01:22:26;13.20;;;5.63;;
78752;SDS011;68072;51.688;7.842;2024-02-21T01:24:51;14.33;;;4.83;;
78752;SDS011;68072;51.688;7.842;2024-02-21T01:27:16;22.00;;;5.50;;
78752;SDS011;68072;51.688;7.842;2024-02-21T01:29:41;11.43;;;4.40;;
78752;SDS011;68072;51.688;7.842;2024-02-21T01:32:07;11.90;;;4.80;;
78752;SDS011;68072;51.688;7.842;2024-02-21T01:34:32;18.55;;;6.45;;
78752;SDS011;68072;51.688;7.842;2024-02-21T01:36:57;19.67;;;6.33;;
78752;SDS011;68072;51.688;7.842;2024-02-21T01:39:30;21.55;;;6.50;;
78752;SDS011;68072;51.688;7.842;2024-02-21T01:42:06;16.77;;;6.28;;
78752;SDS011;68072;51.688;7.842;2024-02-21T01:44:33;17.85;;;6.15;;
78752;SDS011;68072;51.688;7.842;2024-02-21T01:47:01;11.68;;;4.57;;
78752;SDS011;68072;51.688;7.842;2024-02-21T01:49:27;19.00;;;6.00;;
78752;SDS011;68072;51.688;7.842;2024-02-21T01:51:52;14.63;;;6.10;;
78752;SDS011;68072;51.688;7.842;2024-02-21T01:54:18;18.23;;;5.90;;
78752;SDS011;68072;51.688;7.842;2024-02-21T01:56:44;11.90;;;4.78;;
78752;SDS011;68072;51.688;7.842;2024-02-21T01:59:09;14.88;;;5.65;;
78752;SDS011;68072;51.688;7.842;2024-02-21T02:01:35;14.35;;;5.65;;
78752;SDS011;68072;51.688;7.842;2024-02-21T02:04:00;10.73;;;5.10;;
78752;SDS011;68072;51.688;7.842;2024-02-21T02:06:26;19.10;;;6.45;;
78752;SDS011;68072;51.688;7.842;2024-02-21T02:08:52;11.53;;;5.00;;
78752;SDS011;68072;51.688;7.842;2024-02-21T02:11:20;13.23;;;6.05;;
78752;SDS011;68072;51.688;7.842;2024-02-21T02:13:45;12.10;;;5.73;;
78752;SDS011;68072;51.688;7.842;2024-02-21T02:16:15;14.60;;;5.45;;
78752;SDS011;68072;51.688;7.842;2024-02-21T02:18:41;13.00;;;5.70;;
78752;SDS011;68072;51.688;7.842;2024-02-21T02:21:08;18.77;;;5.93;;
78752;SDS011;68072;51.688;7.842;2024-02-21T02:23:35;11.63;;;5.13;;
78752;SDS011;68072;51.688;7.842;2024-02-21T02:26:01;12.67;;;5.53;;
78752;SDS011;68072;51.688;7.842;2024-02-21T02:28:26;20.48;;;5.40;;
78752;SDS011;68072;51.688;7.842;2024-02-21T02:30:51;16.33;;;5.80;;
78752;SDS011;68072;51.688;7.842;2024-02-21T02:33:17;10.80;;;4.70;;
78752;SDS011;68072;51.688;7.842;2024-02-21T02:35:43;13.18;;;6.22;;
78752;SDS011;68072;51.688;7.842;2024-02-21T02:38:08;12.40;;;4.43;;
78752;SDS011;68072;51.688;7.842;2024-02-21T02:40:50;12.35;;;5.15;;
78752;SDS011;68072;51.688;7.842;2024-02-21T02:43:15;15.20;;;5.90;;
78752;SDS011;68072;51.688;7.842;2024-02-21T02:45:40;11.73;;;5.28;;
78752;SDS011;68072;51.688;7.842;2024-02-21T02:48:12;12.07;;;5.07;;
78752;SDS011;68072;51.688;7.842;2024-02-21T02:50:37;11.23;;;4.57;;
78752;SDS011;68072;51.688;7.842;2024-02-21T02:53:02;13.00;;;5.23;;
78752;SDS011;68072;51.688;7.842;2024-02-21T02:55:28;7.90;;;4.38;;
78752;SDS011;68072;51.688;7.842;2024-02-21T02:57:53;8.40;;;4.47;;
78752;SDS011;68072;51.688;7.842;2024-02-21T03:00:18;9.82;;;4.85;;
78752;SDS011;68072;51.688;7.842;2024-02-21T03:02:44;14.65;;;4.93;;
78752;SDS011;68072;51.688;7.842;2024-02-21T03:05:14;7.47;;;3.58;;
78752;SDS011;68072;51.688;7.842;2024-02-21T03:07:40;15.80;;;5.65;;
78752;SDS011;68072;51.688;7.842;2024-02-21T03:10:05;12.40;;;5.10;;
78752;SDS011;68072;51.688;7.842;2024-02-21T03:12:31;8.82;;;4.07;;
78752;SDS011;68072;51.688;7.842;2024-02-21T03:14:56;7.20;;;3.73;;
78752;SDS011;68072;51.688;7.842;2024-02-21T03:17:21;12.60;;;5.00;;
78752;SDS011;68072;51.688;7.842;2024-02-21T03:19:47;10.30;;;4.40;;
78752;SDS011;68072;51.688;7.842;2024-02-21T03:22:13;15.95;;;4.93;;
78752;SDS011;68072;51.688;7.842;2024-02-21T03:24:39;7.87;;;4.10;;
78752;SDS011;68072;51.688;7.842;2024-02-21T03:27:04;5.60;;;3.67;;
78752;SDS011;68072;51.688;7.842;2024-02-21T03:29:29;8.80;;;4.47;;
78752;SDS011;68072;51.688;7.842;2024-02-21T03:31:54;12.50;;;4.73;;
78752;SDS011;68072;51.688;7.842;2024-02-21T03:37:46;13.70;;;4.15;;
78752;SDS011;68072;51.688;7.842;2024-02-21T03:40:11;14.57;;;4.50;;
78752;SDS011;68072;51.688;7.842;2024-02-21T03:42:37;7.67;;;4.07;;
78752;SDS011;68072;51.688;7.842;2024-02-21T03:45:02;10.15;;;3.97;;
78752;SDS011;68072;51.688;7.842;2024-02-21T03:47:28;14.77;;;5.00;;
78752;SDS011;68072;51.688;7.842;2024-02-21T03:49:54;11.80;;;4.87;;
78752;SDS011;68072;51.688;7.842;2024-02-21T03:52:19;5.30;;;3.40;;
78752;SDS011;68072;51.688;7.842;2024-02-21T03:54:44;12.80;;;4.93;;
78752;SDS011;68072;51.688;7.842;2024-02-21T03:57:09;9.70;;;4.07;;
78752;SDS011;68072;51.688;7.842;2024-02-21T03:59:35;13.17;;;3.80;;
78752;SDS011;68072;51.688;7.842;2024-02-21T04:02:00;7.27;;;3.47;;
78752;SDS011;68072;51.688;7.842;2024-02-21T04:04:25;15.30;;;5.73;;
78752;SDS011;68072;51.688;7.842;2024-02-21T04:06:51;8.03;;;3.77;;
78752;SDS011;68072;51.688;7.842;2024-02-21T04:09:16;9.63;;;4.95;;
78752;SDS011;68072;51.688;7.842;2024-02-21T04:11:42;10.85;;;4.63;;
78752;SDS011;68072;51.688;7.842;2024-02-21T04:14:07;11.07;;;4.28;;
78752;SDS011;68072;51.688;7.842;2024-02-21T04:16:32;7.25;;;4.38;;
78752;SDS011;68072;51.688;7.842;2024-02-21T04:18:58;11.85;;;5.38;;
78752;SDS011;68072;51.688;7.842;2024-02-21T04:21:23;10.53;;;4.47;;
78752;SDS011;68072;51.688;7.842;2024-02-21T04:23:48;9.73;;;4.60;;
78752;SDS011;68072;51.688;7.842;2024-02-21T04:26:13;12.93;;;5.67;;
78752;SDS011;68072;51.688;7.842;2024-02-21T04:28:38;7.60;;;3.53;;
78752;SDS011;68072;51.688;7.842;2024-02-21T04:31:04;13.07;;;5.60;;
78752;SDS011;68072;51.688;7.842;2024-02-21T04:33:29;16.33;;;4.80;;
78752;SDS011;68072;51.688;7.842;2024-02-21T04:35:54;9.07;;;3.90;;
78752;SDS011;68072;51.688;7.842;2024-02-21T04:38:20;12.45;;;4.80;;
78752;SDS011;68072;51.688;7.842;2024-02-21T04:40:45;10.32;;;4.72;;
78752;SDS011;68072;51.688;7.842;2024-02-21T04:43:10;11.93;;;4.07;;
78752;SDS011;68072;51.688;7.842;2024-02-21T04:45:36;8.43;;;4.10;;
78752;SDS011;68072;51.688;7.842;2024-02-21T04:48:01;8.17;;;3.50;;
78752;SDS011;68072;51.688;7.842;2024-02-21T04:50:26;6.93;;;4.13;;
78752;SDS011;68072;51.688;7.842;2024-02-21T04:52:52;12.00;;;4.72;;
78752;SDS011;68072;51.688;7.842;2024-02-21T04:55:17;13.23;;;4.83;;
78752;SDS011;68072;51.688;7.842;2024-02-21T04:57:43;15.90;;;5.37;;
78752;SDS011;68072;51.688;7.842;2024-02-21T05:00:08;11.70;;;4.27;;
78752;SDS011;68072;51.688;7.842;2024-02-21T05:02:34;6.43;;;3.28;;
78752;SDS011;68072;51.688;7.842;2024-02-21T05:04:59;7.87;;;3.70;;
78752;SDS011;68072;51.688;7.842;2024-02-21T05:07:24;11.60;;;4.80;;
78752;SDS011;68072;51.688;7.842;2024-02-21T05:09:50;6.82;;;3.15;;
78752;SDS011;68072;51.688;7.842;2024-02-21T05:12:15;10.13;;;4.97;;
78752;SDS011;68072;51.688;7.842;2024-02-21T05:14:41;13.20;;;4.83;;
78752;SDS011;68072;51.688;7.842;2024-02-21T05:17:06;10.53;;;4.30;;
78752;SDS011;68072;51.688;7.842;2024-02-21T05:19:31;6.10;;;3.90;;
78752;SDS011;68072;51.688;7.842;2024-02-21T05:21:56;14.97;;;4.00;;
78752;SDS011;68072;51.688;7.842;2024-02-21T05:24:22;7.43;;;3.60;;
78752;SDS011;68072;51.688;7.842;2024-02-21T05:26:47;8.87;;;4.37;;
78752;SDS011;68072;51.688;7.842;2024-02-21T05:29:12;11.18;;;4.57;;
78752;SDS011;68072;51.688;7.842;2024-02-21T05:34:18;7.78;;;4.13;;
78752;SDS011;68072;51.688;7.842;2024-02-21T05:36:44;11.90;;;4.55;;
78752;SDS011;68072;51.688;7.842;2024-02-21T05:39:09;7.10;;;4.27;;
78752;SDS011;68072;51.688;7.842;2024-02-21T05:41:34;10.37;;;4.33;;
78752;SDS011;68072;51.688;7.842;2024-02-21T05:43:59;6.03;;;3.50;;
78752;SDS011;68072;51.688;7.842;2024-02-21T05:46:25;9.53;;;4.20;;
78752;SDS011;68072;51.688;7.842;2024-02-21T05:48:50;9.67;;;3.67;;
78752;SDS011;68072;51.688;7.842;2024-02-21T05:51:15;8.87;;;4.20;;
78752;SDS011;68072;51.688;7.842;2024-02-21T05:53:40;15.47;;;3.83;;
78752;SDS011;68072;51.688;7.842;2024-02-21T05:56:12;11.87;;;4.50;;
78752;SDS011;68072;51.688;7.842;2024-02-21T05:58:37;8.18;;;3.35;;
78752;SDS011;68072;51.688;7.842;2024-02-21T06:01:02;8.43;;;3.65;;
78752;SDS011;68072;51.688;7.842;2024-02-21T06:03:28;6.82;;;3.25;;
78752;SDS011;68072;51.688;7.842;2024-02-21T06:05:54;7.03;;;2.95;;
78752;SDS011;68072;51.688;7.842;2024-02-21T06:08:19;7.57;;;3.30;;
78752;SDS011;68072;51.688;7.842;2024-02-21T06:10:45;10.70;;;4.38;;
78752;SDS011;68072;51.688;7.842;2024-02-21T06:13:10;10.70;;;3.73;;
78752;SDS011;68072;51.688;7.842;2024-02-21T06:15:35;9.47;;;3.27;;
78752;SDS011;68072;51.688;7.842;2024-02-21T06:18:00;10.17;;;3.60;;
78752;SDS011;68072;51.688;7.842;2024-02-21T06:20:26;8.37;;;3.70;;
78752;SDS011;68072;51.688;7.842;2024-02-21T06:22:51;6.13;;;2.80;;
78752;SDS011;68072;51.688;7.842;2024-02-21T06:25:16;7.30;;;2.93;;
78752;SDS011;68072;51.688;7.842;2024-02-21T06:27:41;6.37;;;3.43;;
78752;SDS011;68072;51.688;7.842;2024-02-21T06:30:07;6.33;;;3.40;;
78752;SDS011;68072;51.688;7.842;2024-02-21T06:32:32;14.55;;;4.97;;
78752;SDS011;68072;51.688;7.842;2024-02-21T06:34:58;5.43;;;3.37;;
78752;SDS011;68072;51.688;7.842;2024-02-21T06:37:23;9.48;;;3.20;;
78752;SDS011;68072;51.688;7.842;2024-02-21T06:39:49;4.95;;;3.05;;
78752;SDS011;68072;51.688;7.842;2024-02-21T06:42:14;7.83;;;2.73;;
78752;SDS011;68072;51.688;7.842;2024-02-21T06:44:40;11.60;;;3.73;;
78752;SDS011;68072;51.688;7.842;2024-02-21T06:47:05;5.37;;;3.03;;
78752;SDS011;68072;51.688;7.842;2024-02-21T06:49:30;6.43;;;3.63;;
78752;SDS011;68072;51.688;7.842;2024-02-21T06:51:55;7.70;;;2.97;;
78752;SDS011;68072;51.688;7.842;2024-02-21T06:54:21;4.53;;;3.07;;
78752;SDS011;68072;51.688;7.842;2024-02-21T06:56:46;8.47;;;3.30;;
78752;SDS011;68072;51.688;7.842;2024-02-21T06:59:11;6.73;;;3.23;;
78752;SDS011;68072;51.688;7.842;2024-02-21T07:01:44;5.35;;;2.67;;
78752;SDS011;68072;51.688;7.842;2024-02-21T07:04:09;9.57;;;2.63;;
78752;SDS011;68072;51.688;7.842;2024-02-21T07:06:34;5.67;;;3.13;;
78752;SDS011;68072;51.688;7.842;2024-02-21T07:08:59;8.43;;;3.80;;
78752;SDS011;68072;51.688;7.842;2024-02-21T07:11:25;6.47;;;2.73;;
78752;SDS011;68072;51.688;7.842;2024-02-21T07:13:50;2.93;;;2.43;;
78752;SDS011;68072;51.688;7.842;2024-02-21T07:16:16;9.52;;;3.38;;
78752;SDS011;68072;51.688;7.842;2024-02-21T07:18:41;4.77;;;3.17;;
78752;SDS011;68072;51.688;7.842;2024-02-21T07:21:06;11.02;;;2.85;;
78752;SDS011;68072;51.688;7.842;2024-02-21T07:23:32;2.80;;;1.90;;
78752;SDS011;68072;51.688;7.842;2024-02-21T07:25:57;4.20;;;2.00;;
78752;SDS011;68072;51.688;7.842;2024-02-21T07:28:22;6.93;;;3.20;;
78752;SDS011;68072;51.688;7.842;2024-02-21T07:30:48;1.57;;;1.47;;
78752;SDS011;68072;51.688;7.842;2024-02-21T07:33:13;4.22;;;2.13;;
78752;SDS011;68072;51.688;7.842;2024-02-21T07:35:39;7.00;;;3.22;;
78752;SDS011;68072;51.688;7.842;2024-02-21T07:38:06;5.18;;;2.75;;
78752;SDS011;68072;51.688;7.842;2024-02-21T07:40:32;5.40;;;3.00;;
78752;SDS011;68072;51.688;7.842;2024-02-21T07:42:57;7.27;;;2.80;;
78752;SDS011;68072;51.688;7.842;2024-02-21T07:45:22;6.23;;;2.73;;
78752;SDS011;68072;51.688;7.842;2024-02-21T07:47:49;6.45;;;2.72;;
78752;SDS011;68072;51.688;7.842;2024-02-21T07:50:15;10.52;;;3.38;;
78752;SDS011;68072;51.688;7.842;2024-02-21T07:52:40;5.53;;;2.60;;
78752;SDS011;68072;51.688;7.842;2024-02-21T07:55:05;4.40;;;2.70;;
78752;SDS011;68072;51.688;7.842;2024-02-21T07:57:30;8.27;;;2.20;;
78752;SDS011;68072;51.688;7.842;2024-02-21T07:59:56;7.33;;;3.03;;
78752;SDS011;68072;51.688;7.842;2024-02-21T08:02:21;3.73;;;2.27;;
78752;SDS011;68072;51.688;7.842;2024-02-21T08:04:46;5.80;;;2.40;;
78752;SDS011;68072;51.688;7.842;2024-02-21T08:07:11;3.10;;;2.60;;
78752;SDS011;68072;51.688;7.842;2024-02-21T08:09:39;5.73;;;2.67;;
78752;SDS011;68072;51.688;7.842;2024-02-21T08:12:04;3.35;;;3.03;;
78752;SDS011;68072;51.688;7.842;2024-02-21T08:14:30;4.88;;;2.17;;
78752;SDS011;68072;51.688;7.842;2024-02-21T08:16:55;3.60;;;2.23;;
78752;SDS011;68072;51.688;7.842;2024-02-21T08:19:20;4.40;;;1.80;;
78752;SDS011;68072;51.688;7.842;2024-02-21T08:21:47;7.68;;;1.92;;
78752;SDS011;68072;51.688;7.842;2024-02-21T08:24:13;6.60;;;2.40;;
78752;SDS011;68072;51.688;7.842;2024-02-21T08:26:41;3.15;;;2.00;;
78752;SDS011;68072;51.688;7.842;2024-02-21T08:29:07;10.68;;;2.60;;
78752;SDS011;68072;51.688;7.842;2024-02-21T08:31:32;2.60;;;2.00;;
78752;SDS011;68072;51.688;7.842;2024-02-21T08:33:57;9.00;;;2.33;;
78752;SDS011;68072;51.688;7.842;2024-02-21T08:36:32;7.10;;;2.63;;
78752;SDS011;68072;51.688;7.842;2024-02-21T08:38:57;5.35;;;2.50;;
78752;SDS011;68072;51.688;7.842;2024-02-21T08:41:23;3.72;;;2.05;;
78752;SDS011;68072;51.688;7.842;2024-02-21T08:43:50;2.60;;;1.92;;
78752;SDS011;68072;51.688;7.842;2024-02-21T08:46:15;3.60;;;2.55;;
78752;SDS011;68072;51.688;7.842;2024-02-21T08:48:40;3.30;;;2.13;;
78752;SDS011;68072;51.688;7.842;2024-02-21T08:51:06;5.20;;;2.45;;
78752;SDS011;68072;51.688;7.842;2024-02-21T08:53:31;5.80;;;2.70;;
78752;SDS011;68072;51.688;7.842;2024-02-21T08:55:56;9.70;;;2.87;;
78752;SDS011;68072;51.688;7.842;2024-02-21T08:58:21;5.73;;;2.67;;
78752;SDS011;68072;51.688;7.842;2024-02-21T09:00:48;5.35;;;2.65;;
78752;SDS011;68072;51.688;7.842;2024-02-21T09:03:13;4.50;;;2.70;;
78752;SDS011;68072;51.688;7.842;2024-02-21T09:05:39;6.10;;;3.40;;
78752;SDS011;68072;51.688;7.842;2024-02-21T09:08:04;2.53;;;2.10;;
78752;SDS011;68072;51.688;7.842;2024-02-21T09:10:29;2.50;;;2.00;;
78752;SDS011;68072;51.688;7.842;2024-02-21T09:12:55;4.27;;;2.37;;
78752;SDS011;68072;51.688;7.842;2024-02-21T09:15:21;5.10;;;3.35;;
78752;SDS011;68072;51.688;7.842;2024-02-21T09:17:46;5.03;;;2.67;;
78752;SDS011;68072;51.688;7.842;2024-02-21T09:20:11;6.20;;;3.00;;
78752;SDS011;68072;51.688;7.842;2024-02-21T09:22:37;7.25;;;3.08;;
78752;SDS011;68072;51.688;7.842;2024-02-21T09:25:04;5.80;;;2.38;;
78752;SDS011;68072;51.688;7.842;2024-02-21T09:27:30;3.25;;;2.35;;
78752;SDS011;68072;51.688;7.842;2024-02-21T09:29:55;4.90;;;3.13;;
78752;SDS011;68072;51.688;7.842;2024-02-21T09:32:20;5.53;;;2.67;;
78752;SDS011;68072;51.688;7.842;2024-02-21T09:34:46;5.30;;;2.70;;
78752;SDS011;68072;51.688;7.842;2024-02-21T09:37:11;5.73;;;3.33;;
78752;SDS011;68072;51.688;7.842;2024-02-21T09:39:37;6.77;;;3.03;;
78752;SDS011;68072;51.688;7.842;2024-02-21T09:42:06;4.73;;;2.73;;
78752;SDS011;68072;51.688;7.842;2024-02-21T09:44:38;3.05;;;2.25;;
78752;SDS011;68072;51.688;7.842;2024-02-21T09:47:12;6.50;;;3.03;;
78752;SDS011;68072;51.688;7.842;2024-02-21T09:49:42;11.65;;;3.42;;
78752;SDS011;68072;51.688;7.842;2024-02-21T09:52:07;5.63;;;3.03;;
78752;SDS011;68072;51.688;7.842;2024-02-21T09:54:33;6.35;;;2.92;;
78752;SDS011;68072;51.688;7.842;2024-02-21T09:57:02;6.10;;;2.50;;
78752;SDS011;68072;51.688;7.842;2024-02-21T09:59:28;6.15;;;2.95;;
78752;SDS011;68072;51.688;7.842;2024-02-21T10:01:54;5.65;;;2.90;;
78752;SDS011;68072;51.688;7.842;2024-02-21T10:04:20;8.27;;;3.23;;
78752;SDS011;68072;51.688;7.842;2024-02-21T10:06:45;7.35;;;3.60;;
78752;SDS011;68072;51.688;7.842;2024-02-21T10:09:23;9.50;;;3.22;;
78752;SDS011;68072;51.688;7.842;2024-02-21T10:11:49;7.28;;;3.17;;
78752;SDS011;68072;51.688;7.842;2024-02-21T10:14:15;5.78;;;3.15;;
78752;SDS011;68072;51.688;7.842;2024-02-21T10:16:41;8.70;;;3.35;;
78752;SDS011;68072;51.688;7.842;2024-02-21T10:19:06;8.63;;;4.30;;
78752;SDS011;68072;51.688;7.842;2024-02-21T10:21:31;6.70;;;3.60;;
78752;SDS011;68072;51.688;7.842;2024-02-21T10:23:57;10.23;;;3.80;;
78752;SDS011;68072;51.688;7.842;2024-02-21T10:26:22;3.90;;;3.20;;
78752;SDS011;68072;51.688;7.842;2024-02-21T10:28:47;10.40;;;4.87;;
78752;SDS011;68072;51.688;7.842;2024-02-21T10:31:23;8.63;;;4.20;;
78752;SDS011;68072;51.688;7.842;2024-02-21T10:34:01;10.82;;;4.25;;
78752;SDS011;68072;51.688;7.842;2024-02-21T10:36:30;3.53;;;2.97;;
78752;SDS011;68072;51.688;7.842;2024-02-21T10:38:55;8.00;;;3.53;;
78752;SDS011;68072;51.688;7.842;2024-02-21T10:41:21;8.30;;;3.97;;
78752;SDS011;68072;51.688;7.842;2024-02-21T10:43:49;4.55;;;2.50;;
78752;SDS011;68072;51.688;7.842;2024-02-21T10:46:15;11.50;;;3.47;;
78752;SDS011;68072;51.688;7.842;2024-02-21T10:48:43;8.00;;;3.38;;
78752;SDS011;68072;51.688;7.842;2024-02-21T10:51:19;6.93;;;2.75;;
78752;SDS011;68072;51.688;7.842;2024-02-21T10:56:24;10.55;;;2.92;;
78752;SDS011;68072;51.688;7.842;2024-02-21T10:58:52;7.95;;;2.72;;
78752;SDS011;68072;51.688;7.842;2024-02-21T11:01:17;8.95;;;3.55;;
78752;SDS011;68072;51.688;7.842;2024-02-21T11:03:43;14.32;;;3.63;;
78752;SDS011;68072;51.688;7.842;2024-02-21T11:06:10;18.05;;;3.28;;
78752;SDS011;68072;51.688;7.842;2024-02-21T11:08:35;7.38;;;3.45;;
78752;SDS011;68072;51.688;7.842;2024-02-21T11:11:01;10.07;;;3.50;;
78752;SDS011;68072;51.688;7.842;2024-02-21T11:13:34;9.50;;;3.30;;
78752;SDS011;68072;51.688;7.842;2024-02-21T11:16:07;7.65;;;3.25;;
78752;SDS011;68072;51.688;7.842;2024-02-21T11:18:32;8.18;;;3.28;;
78752;SDS011;68072;51.688;7.842;2024-02-21T11:20:58;9.30;;;3.80;;
78752;SDS011;68072;51.688;7.842;2024-02-21T11:23:26;9.53;;;3.37;;
78752;SDS011;68072;51.688;7.842;2024-02-21T11:25:52;9.48;;;3.67;;
78752;SDS011;68072;51.688;7.842;2024-02-21T11:28:25;12.03;;;3.90;;
78752;SDS011;68072;51.688;7.842;2024-02-21T11:33:16;10.30;;;3.25;;
78752;SDS011;68072;51.688;7.842;2024-02-21T11:35:41;6.25;;;2.53;;
78752;SDS011;68072;51.688;7.842;2024-02-21T11:38:07;10.07;;;4.10;;
78752;SDS011;68072;51.688;7.842;2024-02-21T11:40:34;8.43;;;3.30;;
78752;SDS011;68072;51.688;7.842;2024-02-21T11:42:59;9.20;;;3.70;;
78752;SDS011;68072;51.688;7.842;2024-02-21T11:45:25;6.37;;;3.07;;
78752;SDS011;68072;51.688;7.842;2024-02-21T11:47:51;11.27;;;3.28;;
78752;SDS011;68072;51.688;7.842;2024-02-21T11:50:16;7.43;;;3.00;;
78752;SDS011;68072;51.688;7.842;2024-02-21T11:52:41;12.87;;;3.33;;
78752;SDS011;68072;51.688;7.842;2024-02-21T11:55:07;11.03;;;3.37;;
78752;SDS011;68072;51.688;7.842;2024-02-21T11:57:33;11.45;;;3.13;;
78752;SDS011;68072;51.688;7.842;2024-02-21T12:00:10;9.27;;;4.43;;
78752;SDS011;68072;51.688;7.842;2024-02-21T12:02:35;4.35;;;3.40;;
78752;SDS011;68072;51.688;7.842;2024-02-21T12:05:00;11.15;;;3.78;;
78752;SDS011;68072;51.688;7.842;2024-02-21T12:07:26;5.88;;;3.83;;
78752;SDS011;68072;51.688;7.842;2024-02-21T12:09:53;11.52;;;4.63;;
78752;SDS011;68072;51.688;7.842;2024-02-21T12:12:21;9.83;;;4.03;;
78752;SDS011;68072;51.688;7.842;2024-02-21T12:14:46;14.20;;;3.65;;
78752;SDS011;68072;51.688;7.842;2024-02-21T12:17:12;7.57;;;3.10;;
78752;SDS011;68072;51.688;7.842;2024-02-21T12:19:37;9.83;;;3.07;;
78752;SDS011;68072;51.688;7.842;2024-02-21T12:22:02;8.40;;;3.20;;
78752;SDS011;68072;51.688;7.842;2024-02-21T12:24:30;4.10;;;2.47;;
78752;SDS011;68072;51.688;7.842;2024-02-21T12:26:56;5.40;;;2.90;;
78752;SDS011;68072;51.688;7.842;2024-02-21T12:29:22;4.60;;;2.63;;
78752;SDS011;68072;51.688;7.842;2024-02-21T12:31:48;5.40;;;2.83;;
78752;SDS011;68072;51.688;7.842;2024-02-21T12:34:14;3.63;;;2.78;;
78752;SDS011;68072;51.688;7.842;2024-02-21T12:36:43;2.15;;;1.80;;
78752;SDS011;68072;51.688;7.842;2024-02-21T12:39:09;7.60;;;2.70;;
78752;SDS011;68072;51.688;7.842;2024-02-21T12:41:35;2.22;;;2.00;;
78752;SDS011;68072;51.688;7.842;2024-02-21T12:44:03;6.22;;;2.72;;
78752;SDS011;68072;51.688;7.842;2024-02-21T12:46:28;4.28;;;2.25;;
78752;SDS011;68072;51.688;7.842;2024-02-21T12:48:53;3.53;;;1.97;;
78752;SDS011;68072;51.688;7.842;2024-02-21T12:51:19;1.83;;;1.60;;
78752;SDS011;68072;51.688;7.842;2024-02-21T12:53:46;4.28;;;2.10;;
78752;SDS011;68072;51.688;7.842;2024-02-21T12:56:12;11.23;;;2.40;;
78752;SDS011;68072;51.688;7.842;2024-02-21T12:58:37;1.90;;;1.80;;
78752;SDS011;68072;51.688;7.842;2024-02-21T13:01:02;5.00;;;1.85;;
78752;SDS011;68072;51.688;7.842;2024-02-21T13:03:28;5.67;;;2.13;;
78752;SDS011;68072;51.688;7.842;2024-02-21T13:08:19;4.85;;;2.25;;
78752;SDS011;68072;51.688;7.842;2024-02-21T13:10:47;5.32;;;1.85;;
78752;SDS011;68072;51.688;7.842;2024-02-21T13:15:38;3.23;;;1.70;;
78752;SDS011;68072;51.688;7.842;2024-02-21T13:18:07;4.47;;;1.70;;
78752;SDS011;68072;51.688;7.842;2024-02-21T13:20:33;5.53;;;1.90;;
78752;SDS011;68072;51.688;7.842;2024-02-21T13:22:58;2.63;;;1.47;;
78752;SDS011;68072;51.688;7.842;2024-02-21T13:25:23;7.03;;;2.10;;
78752;SDS011;68072;51.688;7.842;2024-02-21T13:27:48;5.17;;;1.93;;
78752;SDS011;68072;51.688;7.842;2024-02-21T13:30:14;2.10;;;1.47;;
78752;SDS011;68072;51.688;7.842;2024-02-21T13:32:41;6.85;;;2.13;;
78752;SDS011;68072;51.688;7.842;2024-02-21T13:37:33;3.33;;;1.65;;
78752;SDS011;68072;51.688;7.842;2024-02-21T13:39:58;5.13;;;1.92;;
78752;SDS011;68072;51.688;7.842;2024-02-21T13:42:24;2.57;;;1.90;;
78752;SDS011;68072;51.688;7.842;2024-02-21T13:44:52;4.63;;;1.70;;
78752;SDS011;68072;51.688;7.842;2024-02-21T13:47:17;6.70;;;2.07;;
78752;SDS011;68072;51.688;7.842;2024-02-21T13:49:43;3.23;;;1.27;;
78752;SDS011;68072;51.688;7.842;2024-02-21T13:52:08;4.18;;;1.75;;
78752;SDS011;68072;51.688;7.842;2024-02-21T13:54:34;6.88;;;2.17;;
78752;SDS011;68072;51.688;7.842;2024-02-21T13:56:59;5.50;;;2.60;;
78752;SDS011;68072;51.688;7.842;2024-02-21T13:59:24;5.67;;;1.87;;
78752;SDS011;68072;51.688;7.842;2024-02-21T14:01:51;4.43;;;1.92;;
78752;SDS011;68072;51.688;7.842;2024-02-21T14:04:16;2.33;;;1.33;;
78752;SDS011;68072;51.688;7.842;2024-02-21T14:06:42;3.03;;;1.50;;
78752;SDS011;68072;51.688;7.842;2024-02-21T14:09:08;5.53;;;2.05;;
78752;SDS011;68072;51.688;7.842;2024-02-21T14:11:34;8.13;;;2.20;;
78752;SDS011;68072;51.688;7.842;2024-02-21T14:13:59;5.13;;;1.80;;
78752;SDS011;68072;51.688;7.842;2024-02-21T14:16:25;4.63;;;1.92;;
78752;SDS011;68072;51.688;7.842;2024-02-21T14:18:50;2.83;;;1.58;;
78752;SDS011;68072;51.688;7.842;2024-02-21T14:21:15;3.85;;;2.17;;
78752;SDS011;68072;51.688;7.842;2024-02-21T14:23:41;1.63;;;1.40;;
78752;SDS011;68072;51.688;7.842;2024-02-21T14:26:06;6.17;;;1.83;;
78752;SDS011;68072;51.688;7.842;2024-02-21T14:28:31;4.60;;;2.00;;
78752;SDS011;68072;51.688;7.842;2024-02-21T14:30:58;2.05;;;1.65;;
78752;SDS011;68072;51.688;7.842;2024-02-21T14:33:25;8.20;;;1.58;;
78752;SDS011;68072;51.688;7.842;2024-02-21T14:38:17;3.20;;;1.55;;
78752;SDS011;68072;51.688;7.842;2024-02-21T14:40:43;2.42;;;1.83;;
78752;SDS011;68072;51.688;7.842;2024-02-21T14:43:08;7.00;;;2.37;;
78752;SDS011;68072;51.688;7.842;2024-02-21T14:45:33;5.68;;;1.98;;
78752;SDS011;68072;51.688;7.842;2024-02-21T14:47:59;5.03;;;1.93;;
78752;SDS011;68072;51.688;7.842;2024-02-21T14:50:24;4.80;;;1.57;;
78752;SDS011;68072;51.688;7.842;2024-02-21T14:52:49;5.07;;;1.70;;
78752;SDS011;68072;51.688;7.842;2024-02-21T14:55:15;6.00;;;2.13;;
78752;SDS011;68072;51.688;7.842;2024-02-21T14:57:40;4.90;;;2.27;;